Time;durP1;ratioP1;P1;durP2;ratioP2;P2;SDS_P1;SDS_P2;PMS_P1;PMS_P2;Temp;Humidity;BMP_temperature;BMP_pressure;BME280_temperature;BME280_humidity;BME280_pressure;Samples;Min_cycle;Max_cycle;Signal;HPM_P1;HPM_P2
2022/06/12 00:00:32;;;;;;;;;;;;;;;18.12;89.58;99217.41;3128649;28;20409;-68
2022/06/12 00:02:04;;;;;;;;;;;;;;;18.11;89.38;99218.38;3124471;28;20449;-67
2022/06/12 00:03:35;;;;;;;;;;;;;;;18.08;89.55;99216.84;3128530;28;19925;-67
2022/06/12 00:05:06;;;;;;;;;;;;;;;18.08;89.62;99213.38;3126974;28;19936;-67
2022/06/12 00:06:38;;;;;;;;;;;;;;;18.08;89.70;99210.75;3128198;28;19925;-68
2022/06/12 00:08:10;;;;;;;;;;;;;;;18.08;89.53;99218.66;3126852;28;19936;-67
2022/06/12 00:09:42;;;;;;;;;;;;;;;18.09;89.46;99212.41;3128469;28;20038;-66
2022/06/12 00:11:15;;;;;;;;;;;;;;;18.10;89.22;99208.78;3128564;28;19925;-67
2022/06/12 00:12:47;;;;;;;;;;;;;;;18.11;89.35;99213.13;3128500;28;19924;-67
2022/06/12 00:14:19;;;;;;;;;;;;;;;18.09;89.19;99212.41;3128336;28;20282;-68
2022/06/12 00:15:51;;;;;;;;;;;;;;;18.10;88.90;99214.06;3127909;28;19924;-67
2022/06/12 00:17:23;;;;;;;;;;;;;;;18.08;88.88;99216.84;3128189;28;20428;-67
2022/06/12 00:18:55;;;;;;;;;;;;;;;18.05;88.76;99206.56;3128590;28;20111;-68
2022/06/12 00:20:27;;;;;;;;;;;;;;;18.13;88.59;99217.28;3128602;28;19947;-67
2022/06/12 00:21:59;;;;;;;;;;;;;;;18.16;88.43;99217.03;3128207;28;20243;-67
2022/06/12 00:23:31;;;;;;;;;;;;;;;18.17;88.39;99215.22;3127993;28;19986;-68
2022/06/12 00:25:02;;;;;;;;;;;;;;;18.17;88.06;99213.41;3128132;28;19928;-67
2022/06/12 00:26:35;;;;;;;;;;;;;;;18.17;88.12;99209.97;3128406;28;20443;-68
2022/06/12 00:28:07;;;;;;;;;;;;;;;18.17;87.88;99207.31;3121975;28;20410;-68
2022/06/12 00:29:42;;;;;;;;;;;;;;;18.17;88.09;99208.16;3128049;28;19925;-68
2022/06/12 00:31:13;;;;;;;;;;;;;;;18.18;88.17;99208.97;3128359;28;19931;-68
2022/06/12 00:32:49;;;;;;;;;;;;;;;18.16;88.49;99206.50;3121888;28;19925;-68
2022/06/12 00:34:22;;;;;;;;;;;;;;;18.17;88.42;99202.88;3128357;28;19936;-68
2022/06/12 00:35:54;;;;;;;;;;;;;;;18.17;88.54;99208.16;3127951;28;19932;-68
2022/06/12 00:37:26;;;;;;;;;;;;;;;18.17;88.60;99209.97;3127828;28;19925;-68
2022/06/12 00:38:58;;;;;;;;;;;;;;;18.17;88.68;99208.16;3128045;28;19935;-68
2022/06/12 00:40:30;;;;;;;;;;;;;;;18.15;88.76;99210.06;3128178;28;19924;-67
2022/06/12 00:42:01;;;;;;;;;;;;;;;18.14;88.90;99197.03;3128286;28;19925;-68
2022/06/12 00:43:33;;;;;;;;;;;;;;;18.14;89.36;99194.41;3126251;28;20030;-67
2022/06/12 00:45:19;;;;;;;;;;;;;;;18.12;88.99;99198.97;3127206;28;19925;-68
2022/06/12 00:46:53;;;;;;;;;;;;;;;18.12;89.19;99198.97;3127667;28;19925;-68
2022/06/12 00:48:26;;;;;;;;;;;;;;;18.12;89.13;99201.59;3127920;28;19971;-68
2022/06/12 00:50:00;;;;;;;;;;;;;;;18.10;88.87;99201.75;3127772;28;19988;-69
2022/06/12 00:51:32;;;;;;;;;;;;;;;18.10;89.15;99195.63;3127964;28;20471;-69
2022/06/12 00:53:05;;;;;;;;;;;;;;;18.09;89.33;99201.88;3127950;28;19935;-69
2022/06/12 00:54:39;;;;;;;;;;;;;;;18.08;89.58;99203.66;3124802;28;19940;-69
2022/06/12 00:56:13;;;;;;;;;;;;;;;18.09;89.30;99201.88;3128064;28;20006;-68
2022/06/12 00:57:45;;;;;;;;;;;;;;;18.08;89.68;99198.41;3128372;28;19924;-69
2022/06/12 00:59:18;;;;;;;;;;;;;;;18.08;89.65;99201.03;3121531;28;19924;-69
2022/06/12 01:00:51;;;;;;;;;;;;;;;18.05;89.54;99197.84;3125969;28;19943;-69
2022/06/12 01:02:28;;;;;;;;;;;;;;;18.09;89.73;99207.97;3126636;28;20412;-69
2022/06/12 01:07:38;;;;;;;;;;;;;;;18.10;89.73;99200.88;3122537;28;20024;-69
2022/06/12 01:09:12;;;;;;;;;;;;;;;18.10;89.85;99196.47;3127950;28;19924;-69
2022/06/12 01:10:46;;;;;;;;;;;;;;;18.10;89.83;99196.47;3127876;28;19925;-69
2022/06/12 01:12:19;;;;;;;;;;;;;;;18.10;89.84;99191.22;3127574;28;19924;-69
2022/06/12 01:13:51;;;;;;;;;;;;;;;18.11;89.70;99197.31;3126547;28;19925;-69
2022/06/12 01:15:24;;;;;;;;;;;;;;;18.09;89.83;99196.59;3127859;28;20430;-68
2022/06/12 01:16:56;;;;;;;;;;;;;;;18.09;89.87;99193.97;3128068;28;19987;-68
2022/06/12 01:18:32;;;;;;;;;;;;;;;18.08;89.81;99192.31;3124556;28;19928;-68
2022/06/12 01:20:08;;;;;;;;;;;;;;;18.07;90.03;99186.22;3127789;28;20497;-68
2022/06/12 01:21:52;;;;;;;;;;;;;;;18.08;89.76;99192.31;3127952;28;19986;-68
2022/06/12 01:23:35;;;;;;;;;;;;;;;18.05;89.94;99174.97;3127593;28;20369;-68
2022/06/12 01:25:21;;;;;;;;;;;;;;;18.03;89.94;99178.69;3127900;28;19975;-69
2022/06/12 01:27:13;;;;;;;;;;;;;;;18.03;89.98;99183.94;3125884;28;19931;-69
2022/06/12 01:28:48;;;;;;;;;;;;;;;18.04;90.21;99185.59;3127805;28;20019;-69
2022/06/12 01:30:21;;;;;;;;;;;;;;;18.03;90.44;99179.50;3127682;28;19939;-69
2022/06/12 01:31:54;;;;;;;;;;;;;;;18.03;89.99;99176.03;3124461;28;19925;-69
2022/06/12 01:33:29;;;;;;;;;;;;;;;18.03;89.82;99183.94;3125637;28;20161;-69
2022/06/12 01:35:04;;;;;;;;;;;;;;;18.03;89.94;99176.03;3127647;28;20597;-69
2022/06/12 01:36:42;;;;;;;;;;;;;;;18.01;90.09;99181.44;3127791;28;20397;-69
2022/06/12 01:38:17;;;;;;;;;;;;;;;18.03;90.05;99189.22;3127760;28;19932;-68
2022/06/12 01:39:53;;;;;;;;;;;;;;;18.03;90.07;99184.78;3128647;28;19946;-69
2022/06/12 01:41:28;;;;;;;;;;;;;;;18.04;90.33;99180.34;3123215;28;20396;-69
2022/06/12 01:43:03;;;;;;;;;;;;;;;18.03;90.11;99178.69;3122732;28;19928;-68
2022/06/12 01:44:41;;;;;;;;;;;;;;;18.03;89.98;99183.94;3123573;28;19975;-68
2022/06/12 01:46:16;;;;;;;;;;;;;;;18.04;90.01;99185.59;3119655;28;20562;-68
2022/06/12 01:47:52;;;;;;;;;;;;;;;18.05;89.98;99176.75;3123542;28;20386;-68
2022/06/12 01:49:28;;;;;;;;;;;;;;;18.05;89.90;99180.22;3125147;28;20332;-68
2022/06/12 01:51:07;;;;;;;;;;;;;;;18.04;89.97;99186.44;3124422;28;19982;-68
2022/06/12 01:52:44;;;;;;;;;;;;;;;18.05;89.95;99182.84;3123804;28;20218;-67
2022/06/12 01:54:19;;;;;;;;;;;;;;;18.06;89.79;99178.41;3122944;28;20023;-67
2022/06/12 01:55:54;;;;;;;;;;;;;;;18.03;89.88;99176.88;3125748;28;20392;-67
2022/06/12 01:57:27;;;;;;;;;;;;;;;18.02;90.17;99175.22;3126558;28;20550;-67
2022/06/12 01:59:03;;;;;;;;;;;;;;;18.03;90.01;99179.50;3125264;28;20002;-68
2022/06/12 02:00:36;;;;;;;;;;;;;;;18.07;90.12;99180.06;3125260;28;20011;-69
2022/06/12 02:02:12;;;;;;;;;;;;;;;18.06;90.00;99192.41;3122814;28;19924;-67
2022/06/12 02:03:46;;;;;;;;;;;;;;;18.07;90.04;99193.25;3125986;28;19925;-67
2022/06/12 02:05:20;;;;;;;;;;;;;;;18.05;89.85;99192.56;3122607;28;20008;-67
2022/06/12 02:06:56;;;;;;;;;;;;;;;18.03;89.90;99194.50;3125505;28;19932;-67
2022/06/12 02:08:31;;;;;;;;;;;;;;;18.05;90.04;99192.56;3125457;28;19929;-68
2022/06/12 02:10:06;;;;;;;;;;;;;;;18.05;89.99;99190.75;3125484;28;20475;-67
2022/06/12 02:13:32;;;;;;;;;;;;;;;17.99;90.11;99178.13;3125325;28;19929;-67
2022/06/12 02:15:07;;;;;;;;;;;;;;;18.03;90.30;99189.22;3125408;28;19967;-68
2022/06/12 02:16:43;;;;;;;;;;;;;;;18.03;90.21;99184.78;3128391;28;20474;-68
2022/06/12 02:18:18;;;;;;;;;;;;;;;18.03;90.20;99183.94;3130068;28;19979;-68
2022/06/12 02:19:51;;;;;;;;;;;;;;;18.06;90.17;99179.25;3129694;28;19951;-68
2022/06/12 02:21:26;;;;;;;;;;;;;;;18.07;90.12;99180.06;3129766;28;20425;-67
2022/06/12 02:22:58;;;;;;;;;;;;;;;18.07;89.94;99185.34;3123362;28;19982;-68
2022/06/12 02:24:31;;;;;;;;;;;;;;;18.07;90.10;99186.22;3129756;28;19929;-68
2022/06/12 02:26:03;;;;;;;;;;;;;;;18.06;90.28;99195.06;3129923;28;19936;-68
2022/06/12 02:27:38;;;;;;;;;;;;;;;18.05;90.38;99195.19;3129814;28;20010;-68
2022/06/12 02:29:12;;;;;;;;;;;;;;;18.07;90.18;99202.00;3129572;28;20018;-68
2022/06/12 02:30:48;;;;;;;;;;;;;;;18.08;90.34;99205.47;3129766;28;20127;-68
2022/06/12 02:32:23;;;;;;;;;;;;;;;18.08;90.38;99206.31;3125131;28;19925;-68
2022/06/12 02:33:58;;;;;;;;;;;;;;;18.07;90.72;99212.56;3129572;28;20393;-67
2022/06/12 02:35:32;;;;;;;;;;;;;;;18.03;90.83;99205.03;3129441;28;20196;-68
2022/06/12 02:37:05;;;;;;;;;;;;;;;18.08;91.13;99218.66;3126880;28;19925;-68
2022/06/12 02:38:39;;;;;;;;;;;;;;;18.08;91.00;99221.28;3123835;28;19982;-68
2022/06/12 02:40:14;;;;;;;;;;;;;;;18.09;90.91;99215.03;3123181;28;19929;-68
2022/06/12 02:41:48;;;;;;;;;;;;;;;18.08;91.23;99208.13;3129203;28;19931;-67
2022/06/12 02:43:21;;;;;;;;;;;;;;;18.07;91.54;99212.56;3129401;28;20333;-68
2022/06/12 02:44:55;;;;;;;;;;;;;;;18.04;92.13;99210.16;3129665;28;19925;-68
2022/06/12 02:46:31;;;;;;;;;;;;;;;18.01;92.47;99206.94;3129437;28;19935;-68
2022/06/12 02:48:05;;;;;;;;;;;;;;;17.96;93.06;99202.09;3129102;28;19932;-68
2022/06/12 02:49:39;;;;;;;;;;;;;;;17.91;93.94;99199.84;3129371;28;20397;-68
2022/06/12 02:51:15;;;;;;;;;;;;;;;17.86;94.18;99199.38;3129343;28;19925;-68
2022/06/12 02:52:49;;;;;;;;;;;;;;;17.85;94.60;99207.44;3129625;28;19924;-68
2022/06/12 02:54:24;;;;;;;;;;;;;;;17.82;94.96;99213.78;3129154;28;20028;-67
2022/06/12 02:55:59;;;;;;;;;;;;;;;17.81;94.82;99206.88;3129229;28;19925;-68
2022/06/12 02:57:33;;;;;;;;;;;;;;;17.79;95.29;99206.16;3130013;28;19985;-67
2022/06/12 02:59:08;;;;;;;;;;;;;;;17.73;95.37;99202.19;3123040;28;19928;-69
2022/06/12 03:00:42;;;;;;;;;;;;;;;17.67;96.07;99194.81;3128165;28;19932;-68
2022/06/12 03:02:16;;;;;;;;;;;;;;;17.64;96.19;99200.34;3129137;28;20560;-68
2022/06/12 03:03:53;;;;;;;;;;;;;;;17.62;96.56;99197.00;3128978;28;19994;-68
2022/06/12 03:05:26;;;;;;;;;;;;;;;17.61;96.71;99195.34;3129071;28;19928;-68
2022/06/12 03:06:58;;;;;;;;;;;;;;;17.61;96.59;99191.88;3129160;28;19978;-68
2022/06/12 03:08:31;;;;;;;;;;;;;;;17.59;96.66;99197.25;3129227;28;19924;-69
2022/06/12 03:10:07;;;;;;;;;;;;;;;17.60;96.75;99187.56;3128945;28;19931;-69
2022/06/12 03:11:40;;;;;;;;;;;;;;;17.57;97.12;99188.66;3129153;28;19932;-68
2022/06/12 03:13:12;;;;;;;;;;;;;;;17.56;97.22;99188.78;3128967;28;19982;-67
2022/06/12 03:14:44;;;;;;;;;;;;;;;17.53;97.37;99189.88;3129037;28;20260;-67
2022/06/12 03:16:16;;;;;;;;;;;;;;;17.54;97.47;99188.94;3122650;28;19925;-67
2022/06/12 03:17:48;;;;;;;;;;;;;;;17.51;97.59;99184.75;3129120;28;20019;-68
2022/06/12 03:19:23;;;;;;;;;;;;;;;17.51;97.69;99184.75;3128894;28;20026;-67
2022/06/12 03:21:03;;;;;;;;;;;;;;;17.50;97.73;99184.88;3129107;28;20032;-66
2022/06/12 03:22:41;;;;;;;;;;;;;;;17.50;97.83;99187.50;3129191;28;19928;-67
2022/06/12 03:24:21;;;;;;;;;;;;;;;17.51;97.65;99178.66;3128934;28;19974;-67
2022/06/12 03:25:56;;;;;;;;;;;;;;;17.50;97.72;99188.31;3129311;28;19925;-67
2022/06/12 03:27:45;;;;;;;;;;;;;;;17.49;97.88;99181.41;3126774;28;19951;-67
2022/06/12 03:29:19;;;;;;;;;;;;;;;17.47;97.95;99183.31;3128753;28;19924;-67
2022/06/12 03:30:56;;;;;;;;;;;;;;;17.48;97.87;99185.00;3127016;28;20400;-67
2022/06/12 03:32:32;;;;;;;;;;;;;;;17.48;97.80;99179.75;3125341;28;19932;-67
2022/06/12 03:34:09;;;;;;;;;;;;;;;17.50;97.79;99177.78;3129124;28;20042;-67
2022/06/12 03:35:52;;;;;;;;;;;;;;;17.46;97.97;99176.41;3128917;28;19928;-67
2022/06/12 03:37:27;;;;;;;;;;;;;;;17.52;97.86;99186.41;3128797;28;20031;-67
2022/06/12 03:39:01;;;;;;;;;;;;;;;17.55;97.53;99185.31;3128720;28;19937;-67
2022/06/12 03:40:35;;;;;;;;;;;;;;;17.57;97.68;99183.41;3128924;28;20507;-67
2022/06/12 03:42:11;;;;;;;;;;;;;;;17.59;97.38;99189.34;3128794;28;19924;-67
2022/06/12 03:43:46;;;;;;;;;;;;;;;17.60;97.33;99188.41;3128708;28;19925;-67
2022/06/12 03:45:22;;;;;;;;;;;;;;;17.60;97.25;99184.91;3128531;28;19924;-67
2022/06/12 03:46:55;;;;;;;;;;;;;;;17.62;97.46;99190.91;3128919;28;20686;-67
2022/06/12 03:48:29;;;;;;;;;;;;;;;17.62;97.25;99196.16;3128592;28;19936;-67
2022/06/12 03:50:04;;;;;;;;;;;;;;;17.63;96.99;99193.41;3128586;28;20517;-67
2022/06/12 03:51:38;;;;;;;;;;;;;;;17.63;97.12;99195.19;3122392;28;19928;-67
2022/06/12 03:53:13;;;;;;;;;;;;;;;17.63;96.92;99193.41;3128426;28;20007;-67
2022/06/12 03:54:50;;;;;;;;;;;;;;;17.64;96.94;99189.81;3128499;28;19947;-67
2022/06/12 03:58:16;;;;;;;;;;;;;;;17.65;96.83;99188.84;3129710;28;19925;-67
2022/06/12 03:59:50;;;;;;;;;;;;;;;17.66;96.64;99194.97;3125091;28;20394;-67
2022/06/12 04:01:23;;;;;;;;;;;;;;;17.67;96.52;99194.00;3127699;28;19943;-67
2022/06/12 04:02:58;;;;;;;;;;;;;;;17.68;96.48;99185.13;3128126;28;20393;-68
2022/06/12 04:04:31;;;;;;;;;;;;;;;17.69;96.31;99186.81;3128349;28;19950;-67
2022/06/12 04:06:05;;;;;;;;;;;;;;;17.70;96.23;99193.72;3128435;28;19955;-68
2022/06/12 04:07:43;;;;;;;;;;;;;;;17.69;96.11;99192.91;3128278;28;20007;-67
2022/06/12 04:09:16;;;;;;;;;;;;;;;17.69;96.44;99184.16;3128021;28;19929;-68
2022/06/12 04:10:49;;;;;;;;;;;;;;;17.69;96.44;99190.25;3128413;28;19924;-67
2022/06/12 04:12:22;;;;;;;;;;;;;;;17.70;96.58;99189.28;3128470;28;19937;-67
2022/06/12 04:13:54;;;;;;;;;;;;;;;17.71;96.41;99190.13;3128586;28;19925;-68
2022/06/12 04:15:27;;;;;;;;;;;;;;;17.72;96.33;99190.00;3128362;28;19925;-67
2022/06/12 04:17:00;;;;;;;;;;;;;;;17.73;96.19;99188.19;3126314;28;20302;-67
2022/06/12 04:18:33;;;;;;;;;;;;;;;17.74;96.20;99189.84;3128360;28;19924;-69
2022/06/12 04:20:05;;;;;;;;;;;;;;;17.74;96.25;99188.06;3128394;28;19932;-67
2022/06/12 04:21:40;;;;;;;;;;;;;;;17.75;96.53;99191.56;3127911;28;20448;-67
2022/06/12 04:23:17;;;;;;;;;;;;;;;17.77;96.47;99186.97;3128228;28;20381;-67
2022/06/12 04:24:52;;;;;;;;;;;;;;;17.77;96.56;99191.41;3128378;28;19924;-67
2022/06/12 04:26:30;;;;;;;;;;;;;;;17.77;96.47;99192.22;3128319;28;19929;-67
2022/06/12 04:28:01;;;;;;;;;;;;;;;17.79;96.49;99186.88;3128033;28;19989;-67
2022/06/12 04:29:34;;;;;;;;;;;;;;;17.77;96.75;99194.88;3127963;28;19925;-67
2022/06/12 04:31:08;;;;;;;;;;;;;;;17.76;96.69;99198.47;3124584;28;19929;-68
2022/06/12 04:32:39;;;;;;;;;;;;;;;17.79;96.53;99200.06;3128115;28;19925;-67
2022/06/12 04:34:14;;;;;;;;;;;;;;;17.77;96.65;99199.31;3127952;28;20541;-67
2022/06/12 04:35:49;;;;;;;;;;;;;;;17.76;96.33;99201.13;3127857;28;19924;-67
2022/06/12 04:37:21;;;;;;;;;;;;;;;17.79;96.38;99203.50;3127977;28;19994;-68
2022/06/12 04:38:54;;;;;;;;;;;;;;;17.82;96.41;99205.88;3128190;28;19986;-68
2022/06/12 04:40:28;;;;;;;;;;;;;;;17.82;96.35;99213.78;3127990;28;19928;-68
2022/06/12 04:42:00;;;;;;;;;;;;;;;17.84;96.28;99213.69;3128033;28;19932;-67
2022/06/12 04:43:32;;;;;;;;;;;;;;;17.84;96.31;99214.50;3127971;28;19931;-67
2022/06/12 04:45:05;;;;;;;;;;;;;;;17.87;96.14;99208.97;3127982;28;20306;-67
2022/06/12 04:46:39;;;;;;;;;;;;;;;17.89;96.26;99214.94;3128046;28;19967;-67
2022/06/12 04:48:12;;;;;;;;;;;;;;;17.89;95.93;99222.00;3127282;28;20333;-67
2022/06/12 04:49:43;;;;;;;;;;;;;;;17.92;95.58;99219.97;3127936;28;19928;-68
2022/06/12 04:51:15;;;;;;;;;;;;;;;17.93;95.43;99223.44;3127854;28;19925;-68
2022/06/12 04:52:47;;;;;;;;;;;;;;;17.92;95.60;99227.88;3127617;28;19931;-68
2022/06/12 04:54:20;;;;;;;;;;;;;;;17.92;95.64;99227.88;3127960;28;19998;-68
2022/06/12 04:55:52;;;;;;;;;;;;;;;17.94;95.50;99230.34;3127920;28;20321;-68
2022/06/12 04:57:25;;;;;;;;;;;;;;;17.94;95.53;99233.00;3127547;28;20459;-67
2022/06/12 04:58:57;;;;;;;;;;;;;;;17.95;95.49;99232.00;3127999;28;19925;-67
2022/06/12 05:00:28;;;;;;;;;;;;;;;17.94;95.45;99225.91;3121512;28;19924;-68
2022/06/12 05:02:00;;;;;;;;;;;;;;;17.94;95.46;99228.56;3127766;28;19924;-68
2022/06/12 05:03:32;;;;;;;;;;;;;;;17.96;95.37;99233.69;3127506;28;20182;-68
2022/06/12 05:05:04;;;;;;;;;;;;;;;17.92;95.65;99230.50;3127793;28;19924;-68
2022/06/12 05:06:36;;;;;;;;;;;;;;;17.96;95.67;99231.91;3127948;28;19935;-68
2022/06/12 05:08:08;;;;;;;;;;;;;;;17.99;95.95;99240.50;3127827;28;20390;-68
2022/06/12 05:09:41;;;;;;;;;;;;;;;18.00;95.70;99237.72;3127718;28;20162;-68
2022/06/12 05:11:13;;;;;;;;;;;;;;;18.00;95.59;99236.91;3127846;28;19928;-68
2022/06/12 05:12:45;;;;;;;;;;;;;;;18.00;95.46;99243.00;3127782;28;19994;-68
2022/06/12 05:14:16;;;;;;;;;;;;;;;18.02;95.57;99251.63;3127962;28;20361;-68
2022/06/12 05:15:48;;;;;;;;;;;;;;;18.03;95.48;99250.66;3127731;28;19924;-68
2022/06/12 05:17:22;;;;;;;;;;;;;;;18.04;95.29;99243.56;3127455;28;19935;-67
2022/06/12 05:18:55;;;;;;;;;;;;;;;18.06;95.20;99249.56;3127813;28;19991;-68
2022/06/12 05:20:28;;;;;;;;;;;;;;;18.06;95.33;99246.91;3127916;28;19931;-68
2022/06/12 05:22:00;;;;;;;;;;;;;;;18.04;95.23;99254.94;3127979;28;20358;-67
2022/06/12 05:23:32;;;;;;;;;;;;;;;18.06;95.35;99260.09;3126047;28;20496;-66
2022/06/12 05:25:05;;;;;;;;;;;;;;;18.05;95.09;99254.00;3123179;28;19925;-67
2022/06/12 05:26:38;;;;;;;;;;;;;;;18.08;95.24;99263.44;3123468;28;20341;-67
2022/06/12 05:28:11;;;;;;;;;;;;;;;18.07;95.06;99269.66;3123292;28;20457;-66
2022/06/12 05:29:42;;;;;;;;;;;;;;;18.09;95.11;99270.38;3123011;28;20490;-67
2022/06/12 05:31:14;;;;;;;;;;;;;;;18.10;94.94;99270.25;3122958;28;19925;-67
2022/06/12 05:32:46;;;;;;;;;;;;;;;18.11;94.66;99265.81;3127610;28;20432;-67
2022/06/12 05:34:18;;;;;;;;;;;;;;;18.12;95.09;99273.56;3127761;28;20502;-67
2022/06/12 05:35:49;;;;;;;;;;;;;;;18.11;94.76;99271.09;3127325;28;19924;-67
2022/06/12 05:37:21;;;;;;;;;;;;;;;18.12;94.71;99267.47;3127521;28;19924;-67
2022/06/12 05:38:53;;;;;;;;;;;;;;;18.13;94.87;99269.13;3127686;28;19982;-66
2022/06/12 05:40:28;;;;;;;;;;;;;;;18.13;94.75;99271.78;3127533;28;20042;-67
2022/06/12 05:42:00;;;;;;;;;;;;;;;18.10;94.64;99272.03;3127569;28;19933;-67
2022/06/12 05:43:40;;;;;;;;;;;;;;;18.07;95.10;99259.97;3090142;28;20371;-66
2022/06/12 05:45:14;;;;;;;;;;;;;;;18.11;95.13;99261.38;3127309;28;20363;-67
2022/06/12 05:46:46;;;;;;;;;;;;;;;18.12;95.01;99256.94;3127631;28;19940;-67
2022/06/12 05:48:20;;;;;;;;;;;;;;;18.09;95.18;99262.47;3122797;28;19952;-66
2022/06/12 05:49:51;;;;;;;;;;;;;;;18.08;95.26;99253.75;3127378;28;20011;-66
2022/06/12 05:51:23;;;;;;;;;;;;;;;18.07;95.19;99254.72;3127541;28;19983;-66
2022/06/12 05:52:55;;;;;;;;;;;;;;;18.06;95.12;99260.94;3127553;28;19972;-66
2022/06/12 05:54:26;;;;;;;;;;;;;;;18.06;95.13;99257.47;3126561;28;19935;-67
2022/06/12 05:56:00;;;;;;;;;;;;;;;18.09;95.05;99251.94;3127673;28;19924;-66
2022/06/12 05:57:31;;;;;;;;;;;;;;;18.11;95.09;99257.91;3128099;28;19972;-68
2022/06/12 05:59:03;;;;;;;;;;;;;;;18.11;95.07;99261.38;3126944;28;19933;-67
2022/06/12 06:00:35;;;;;;;;;;;;;;;18.13;95.11;99266.50;3126990;28;19931;-68
2022/06/12 06:02:06;;;;;;;;;;;;;;;18.15;94.93;99268.03;3127232;28;19925;-68
2022/06/12 06:03:38;;;;;;;;;;;;;;;18.16;94.70;99266.25;3127294;28;20432;-66
2022/06/12 06:05:10;;;;;;;;;;;;;;;18.17;94.47;99262.66;3127840;28;19956;-68
2022/06/12 06:06:44;;;;;;;;;;;;;;;18.17;94.18;99260.03;3127493;28;19925;-64
2022/06/12 06:08:17;;;;;;;;;;;;;;;18.19;93.92;99258.09;3127678;28;19924;-64
2022/06/12 06:09:48;;;;;;;;;;;;;;;18.20;94.22;99265.03;3127246;28;19930;-66
2022/06/12 06:11:21;;;;;;;;;;;;;;;18.22;94.21;99265.75;3127115;28;20290;-65
2022/06/12 06:12:53;;;;;;;;;;;;;;;18.24;94.39;99270.88;3127579;28;19931;-65
2022/06/12 06:14:25;;;;;;;;;;;;;;;18.24;94.13;99271.69;3127334;28;20261;-66
2022/06/12 06:15:57;;;;;;;;;;;;;;;18.28;94.16;99272.25;3121026;28;20316;-66
2022/06/12 06:17:28;;;;;;;;;;;;;;;18.29;94.29;99272.16;3127292;28;19932;-65
2022/06/12 06:19:00;;;;;;;;;;;;;;;18.30;94.19;99271.16;3127255;28;19924;-67
2022/06/12 06:20:34;;;;;;;;;;;;;;;18.34;93.91;99277.03;3126965;28;19994;-66
2022/06/12 06:22:05;;;;;;;;;;;;;;;18.37;93.66;99276.78;3132643;28;19931;-65
2022/06/12 06:23:37;;;;;;;;;;;;;;;18.38;93.56;99287.19;3132230;28;20318;-71
2022/06/12 06:25:10;;;;;;;;;;;;;;;18.39;93.52;99283.56;3132434;28;19998;-71
2022/06/12 06:26:43;;;;;;;;;;;;;;;18.41;93.45;99279.00;3132702;28;19925;-68
2022/06/12 06:28:15;;;;;;;;;;;;;;;18.44;93.45;99277.91;3132161;28;19928;-70
2022/06/12 06:29:46;;;;;;;;;;;;;;;18.45;93.22;99276.09;3132143;28;20405;-72
2022/06/12 06:31:18;;;;;;;;;;;;;;;18.48;93.32;99286.38;3129864;28;19924;-71
2022/06/12 06:32:49;;;;;;;;;;;;;;;18.50;93.06;99287.09;3132156;28;19928;-71
2022/06/12 06:34:21;;;;;;;;;;;;;;;18.54;92.89;99285.84;3132523;28;19924;-72
2022/06/12 06:35:53;;;;;;;;;;;;;;;18.57;92.72;99293.50;3134015;28;19940;-69
2022/06/12 06:37:24;;;;;;;;;;;;;;;18.57;92.60;99285.59;3134566;28;20017;-70
2022/06/12 06:38:57;;;;;;;;;;;;;;;18.61;92.80;99282.56;3133859;28;19928;-67
2022/06/12 06:40:30;;;;;;;;;;;;;;;18.63;92.68;99291.19;3126863;28;19921;-64
2022/06/12 06:42:03;;;;;;;;;;;;;;;18.68;92.34;99295.22;3133379;28;19932;-66
2022/06/12 06:46:13;;;;;;;;;;;;;;;18.70;92.15;99298.56;3134529;28;19975;-66
2022/06/12 06:47:15;;;;;;;;;;;;;;;18.76;91.70;99296.25;3134615;28;19925;-65
2022/06/12 06:48:46;;;;;;;;;;;;;;;18.79;91.94;99289.88;3133967;28;19951;-65
2022/06/12 06:50:19;;;;;;;;;;;;;;;18.83;91.82;99299.19;3134233;28;19928;-69
2022/06/12 06:51:51;;;;;;;;;;;;;;;18.81;91.75;99304.59;3134277;28;20645;-68
2022/06/12 06:53:23;;;;;;;;;;;;;;;18.84;91.66;99306.97;3134480;28;19928;-66
2022/06/12 06:54:54;;;;;;;;;;;;;;;18.86;91.63;99307.66;3134746;28;19925;-65
2022/06/12 06:56:26;;;;;;;;;;;;;;;18.89;91.34;99306.56;3134552;28;20415;-65
2022/06/12 06:57:59;;;;;;;;;;;;;;;18.94;91.57;99300.88;3134560;28;19935;-66
2022/06/12 06:59:31;;;;;;;;;;;;;;;18.93;91.13;99307.13;3134541;28;19924;-66
2022/06/12 07:01:04;;;;;;;;;;;;;;;18.94;90.90;99311.44;3130669;28;20394;-66
2022/06/12 07:02:35;;;;;;;;;;;;;;;18.95;90.97;99319.22;3134177;28;19921;-64
2022/06/12 07:04:07;;;;;;;;;;;;;;;18.99;91.05;99319.75;3134237;28;19925;-65
2022/06/12 07:05:39;;;;;;;;;;;;;;;19.00;90.49;99332.00;3134433;28;19921;-64
2022/06/12 07:07:11;;;;;;;;;;;;;;;19.00;90.60;99332.84;3134273;28;19924;-63
2022/06/12 07:08:43;;;;;;;;;;;;;;;19.01;90.59;99329.22;3134575;28;19925;-61
2022/06/12 07:10:23;;;;;;;;;;;;;;;19.03;90.82;99332.56;3133744;28;19952;-61
2022/06/12 07:11:54;;;;;;;;;;;;;;;19.01;91.01;99320.47;3134778;28;19920;-61
2022/06/12 07:13:27;;;;;;;;;;;;;;;19.00;91.35;99316.19;3134396;28;20570;-61
2022/06/12 07:14:59;;;;;;;;;;;;;;;19.00;91.93;99324.09;3133971;28;20043;-62
2022/06/12 07:16:32;;;;;;;;;;;;;;;19.03;92.16;99316.75;3134145;28;20309;-61
2022/06/12 07:18:04;;;;;;;;;;;;;;;19.02;92.60;99319.53;3133741;28;19974;-63
2022/06/12 07:19:36;;;;;;;;;;;;;;;19.03;92.90;99315.91;3133692;28;19974;-64
2022/06/12 07:21:08;;;;;;;;;;;;;;;19.06;93.27;99319.09;3134459;28;20004;-64
2022/06/12 07:22:40;;;;;;;;;;;;;;;19.09;93.15;99323.28;3133963;28;20390;-65
2022/06/12 07:24:12;;;;;;;;;;;;;;;19.15;93.17;99328.03;3132454;28;20459;-68
2022/06/12 07:25:46;;;;;;;;;;;;;;;19.16;92.90;99324.41;3129138;28;20773;-65
2022/06/12 07:27:18;;;;;;;;;;;;;;;19.18;93.13;99324.28;3128678;28;19924;-66
2022/06/12 07:28:51;;;;;;;;;;;;;;;19.18;93.45;99322.47;3129172;28;19924;-65
2022/06/12 07:30:23;;;;;;;;;;;;;;;19.21;93.29;99335.38;3128882;28;19924;-66
2022/06/12 07:31:55;;;;;;;;;;;;;;;19.26;93.10;99338.47;3127468;28;19978;-66
2022/06/12 07:33:27;;;;;;;;;;;;;;;19.26;93.00;99329.72;3124413;28;19928;-64
2022/06/12 07:34:59;;;;;;;;;;;;;;;19.29;92.83;99337.38;3124224;28;19986;-64
2022/06/12 07:36:30;;;;;;;;;;;;;;;19.30;92.91;99334.56;3126658;28;19939;-62
2022/06/12 07:38:03;;;;;;;;;;;;;;;19.35;92.80;99341.28;3129064;28;19929;-63
2022/06/12 07:39:35;;;;;;;;;;;;;;;19.40;92.91;99333.75;3128759;28;19982;-63
2022/06/12 07:41:08;;;;;;;;;;;;;;;19.42;92.67;99342.38;3124185;28;19925;-66
2022/06/12 07:42:40;;;;;;;;;;;;;;;19.44;92.19;99335.16;3128865;28;19931;-66
2022/06/12 07:44:14;;;;;;;;;;;;;;;19.46;91.86;99338.47;3128885;28;20379;-68
2022/06/12 07:45:46;;;;;;;;;;;;;;;19.45;91.92;99334.19;3127950;28;19924;-68
2022/06/12 07:47:19;;;;;;;;;;;;;;;19.47;92.03;99343.63;3128525;28;19928;-70
2022/06/12 07:48:51;;;;;;;;;;;;;;;19.48;91.91;99341.81;3129036;28;19925;-66
2022/06/12 07:50:22;;;;;;;;;;;;;;;19.52;91.86;99353.78;3128405;28;19935;-66
2022/06/12 07:51:55;;;;;;;;;;;;;;;19.53;91.77;99352.81;3128525;28;19925;-66
2022/06/12 07:53:27;;;;;;;;;;;;;;;19.54;91.54;99351.84;3128518;28;19925;-64
2022/06/12 07:54:59;;;;;;;;;;;;;;;19.55;91.57;99356.13;3128406;28;20723;-67
2022/06/12 07:56:31;;;;;;;;;;;;;;;19.54;91.26;99357.13;3128720;28;19924;-66
2022/06/12 07:58:03;;;;;;;;;;;;;;;19.54;91.24;99357.13;3129823;28;19925;-65
2022/06/12 07:59:36;;;;;;;;;;;;;;;19.52;91.58;99356.41;3128599;28;20315;-67
2022/06/12 08:01:09;;;;;;;;;;;;;;;19.51;91.48;99360.03;3126521;28;19970;-67
2022/06/12 08:02:41;;;;;;;;;;;;;;;19.47;91.87;99356.00;3128864;28;19931;-66
2022/06/12 08:04:13;;;;;;;;;;;;;;;19.43;91.85;99351.97;3134012;28;19978;-63
2022/06/12 08:05:44;;;;;;;;;;;;;;;19.40;92.06;99352.22;3133456;28;20433;-64
2022/06/12 08:07:16;;;;;;;;;;;;;;;19.36;92.36;99353.50;3133593;28;19974;-64
2022/06/12 08:08:47;;;;;;;;;;;;;;;19.32;92.57;99353.75;3134184;28;19921;-64
2022/06/12 08:10:19;;;;;;;;;;;;;;;19.31;92.86;99356.53;3133701;28;19920;-75
2022/06/12 08:11:52;;;;;;;;;;;;;;;19.25;93.14;99357.06;3133593;28;19924;-73
2022/06/12 08:13:24;;;;;;;;;;;;;;;19.24;93.27;99360.69;3133958;28;19921;-67
2022/06/12 08:14:57;;;;;;;;;;;;;;;19.24;93.81;99371.25;3133759;28;19974;-67
2022/06/12 08:16:29;;;;;;;;;;;;;;;19.24;93.80;99373.88;3133242;28;19974;-67